Time,TemperatureF,DewpointF,PressureIn,WindDirection,WindDirectionDegrees,WindSpeedMPH,WindSpeedGustMPH,Humidity,HourlyPrecipIn,Conditions,Clouds,dailyrainin,SoftwareType,DateUTC
2013-09-21 00:04:00,65.0,63.0,-100.00,SSW,196,2.0,3.0,95,0.00,,,0.53,,2013-09-21 04:04:00,
2013-09-21 00:24:00,64.0,63.0,-100.00,SSE,165,2.0,3.0,96,0.00,,,0.53,,2013-09-21 04:24:00,
2013-09-21 00:43:00,64.0,63.0,-100.00,ESE,112,3.0,4.0,96,0.00,,,0.53,,2013-09-21 04:43:00,
2013-09-21 00:54:00,64.0,63.0,-100.00,ESE,106,3.0,3.0,95,0.00,,,0.53,,2013-09-21 04:54:00,
2013-09-21 01:04:00,64.0,63.0,-100.00,ESE,106,3.0,3.0,95,0.00,,,0.53,,2013-09-21 05:04:00,
2013-09-21 01:23:00,64.0,63.0,-100.00,SSW,210,2.0,3.0,95,0.00,,,0.53,,2013-09-21 05:23:00,
2013-09-21 01:43:00,64.0,63.0,-100.00,SW,217,1.0,3.0,95,0.00,,,0.53,,2013-09-21 05:43:00,
2013-09-21 01:52:00,64.0,63.0,-100.00,SSE,167,4.0,5.0,95,0.00,,,0.53,,2013-09-21 05:52:00,
2013-09-21 02:02:00,64.0,63.0,-100.00,SSE,167,4.0,5.0,95,0.00,,,0.53,,2013-09-21 06:02:00,
2013-09-21 02:12:00,64.0,63.0,-100.00,SSE,167,4.0,5.0,95,0.00,,,0.53,,2013-09-21 06:12:00,
2013-09-21 02:42:00,64.0,63.0,-100.00,South,169,3.0,4.0,95,0.00,,,0.53,,2013-09-21 06:42:00,
2013-09-21 02:52:00,64.0,63.0,-100.00,SSE,162,4.0,6.0,95,0.00,,,0.53,,2013-09-21 06:52:00,
2013-09-21 03:01:00,64.0,63.0,-100.00,SSE,162,4.0,6.0,95,0.00,,,0.53,,2013-09-21 07:01:00,
2013-09-21 03:22:00,64.0,63.0,-100.00,South,171,3.0,5.0,96,0.00,,,0.53,,2013-09-21 07:22:00,
2013-09-21 03:42:00,64.0,63.0,-100.00,SSE,165,4.0,6.0,96,0.00,,,0.53,,2013-09-21 07:42:00,
2013-09-21 03:52:00,64.0,63.0,-100.00,South,181,4.0,5.0,96,0.00,,,0.53,,2013-09-21 07:52:00,
2013-09-21 04:03:00,64.0,63.0,-100.00,South,181,4.0,5.0,96,0.00,,,0.53,,2013-09-21 08:03:00,
2013-09-21 04:22:00,64.0,63.0,-100.00,South,175,4.0,5.0,96,0.00,,,0.53,,2013-09-21 08:22:00,
2013-09-21 04:42:00,64.0,63.0,-100.00,SSW,192,3.0,4.0,96,0.00,,,0.53,,2013-09-21 08:42:00,
2013-09-21 04:52:00,64.0,63.0,-100.00,South,175,3.0,5.0,96,0.00,,,0.53,,2013-09-21 08:52:00,
2013-09-21 05:02:00,64.0,63.0,-100.00,South,175,3.0,5.0,96,0.00,,,0.53,,2013-09-21 09:02:00,
2013-09-21 05:22:00,64.0,63.0,-100.00,South,172,4.0,5.0,96,0.00,,,0.53,,2013-09-21 09:22:00,
2013-09-21 05:43:00,64.0,63.0,-100.00,SSE,151,3.0,5.0,96,0.00,,,0.53,,2013-09-21 09:43:00,
2013-09-21 05:53:00,64.0,63.0,-100.00,South,191,4.0,5.0,96,0.00,,,0.53,,2013-09-21 09:53:00,
2013-09-21 06:12:00,64.0,63.0,-100.00,South,179,3.0,4.0,95,0.00,,,0.53,,2013-09-21 10:12:00,
2013-09-21 06:23:00,64.0,63.0,-100.00,South,179,3.0,4.0,95,0.00,,,0.53,,2013-09-21 10:23:00,
2013-09-21 06:42:00,64.0,63.0,-100.00,SSW,208,2.0,3.0,95,0.00,,,0.53,,2013-09-21 10:42:00,
2013-09-21 06:52:00,64.0,63.0,-100.00,South,176,5.0,6.0,95,0.00,,,0.53,,2013-09-21 10:52:00,
2013-09-21 07:03:00,64.0,63.0,-100.00,South,176,5.0,6.0,95,0.00,,,0.53,,2013-09-21 11:03:00,
2013-09-21 07:42:00,64.0,63.0,-100.00,South,189,1.0,2.0,94,0.00,,,0.53,,2013-09-21 11:42:00,
2013-09-21 07:52:00,64.0,62.0,-100.00,SSE,165,4.0,5.0,94,0.00,,,0.53,,2013-09-21 11:52:00,
2013-09-21 08:02:00,64.0,62.0,-100.00,SSE,165,4.0,5.0,94,0.00,,,0.53,,2013-09-21 12:02:00,
2013-09-21 08:22:00,64.0,62.0,-100.00,South,186,2.0,4.0,94,0.00,,,0.53,,2013-09-21 12:22:00,
2013-09-21 08:42:00,64.0,62.0,-100.00,South,191,1.0,2.0,94,0.00,,,0.53,,2013-09-21 12:42:00,
2013-09-21 08:52:00,64.0,62.0,-100.00,South,191,4.0,6.0,94,0.00,,,0.43,,2013-09-21 12:52:00,
2013-09-21 09:22:00,64.0,62.0,-100.00,SSE,167,6.0,8.0,94,0.00,,,0.26,,2013-09-21 13:22:00,
2013-09-21 09:52:00,64.0,62.0,-100.00,South,181,8.0,10.0,94,0.00,,,0.22,,2013-09-21 13:52:00,
2013-09-21 10:11:00,64.0,63.0,-100.00,South,175,10.0,14.0,93,0.00,,,0.15,,2013-09-21 14:11:00,
2013-09-21 10:22:00,64.0,63.0,-100.00,South,175,10.0,14.0,93,0.00,,,0.15,,2013-09-21 14:22:00,
2013-09-21 10:42:00,64.0,63.0,-100.00,South,169,8.0,12.0,94,0.00,,,0.15,,2013-09-21 14:42:00,
2013-09-21 10:52:00,65.0,63.0,-100.00,South,174,9.0,12.0,93,0.00,,,0.15,,2013-09-21 14:52:00,
2013-09-21 11:02:00,65.0,63.0,-100.00,South,174,9.0,12.0,93,0.00,,,0.15,,2013-09-21 15:02:00,
2013-09-21 11:22:00,65.0,63.0,-100.00,South,175,7.0,8.0,93,0.00,,,0.15,,2013-09-21 15:22:00,
2013-09-21 11:34:00,65.0,63.0,-100.00,SSE,162,11.0,16.0,92,0.00,,,0.07,,2013-09-21 15:34:00,
2013-09-21 11:45:00,65.0,63.0,-100.00,SSE,164,9.0,12.0,92,0.00,,,0.14,,2013-09-21 15:45:00,
2013-09-21 11:55:00,65.0,63.0,-100.00,SSE,158,11.0,14.0,92,0.00,,,0.07,,2013-09-21 15:55:00,
2013-09-21 12:05:00,65.0,63.0,-100.00,SSE,158,11.0,14.0,92,0.00,,,0.07,,2013-09-21 16:05:00,
2013-09-21 12:24:00,65.0,63.0,-100.00,SSE,162,11.0,16.0,92,0.00,,,0.07,,2013-09-21 16:24:00,
2013-09-21 12:54:00,66.0,63.0,-100.00,South,179,9.0,12.0,91,0.00,,,0.07,,2013-09-21 16:54:00,
2013-09-21 13:03:00,66.0,63.0,-100.00,South,179,9.0,12.0,91,0.00,,,0.07,,2013-09-21 17:03:00,
2013-09-21 13:23:00,66.0,63.0,-100.00,SSE,165,11.0,15.0,92,0.04,,,0.07,,2013-09-21 17:23:00,
2013-09-21 13:43:00,66.0,64.0,-100.00,South,169,9.0,12.0,93,0.01,,,0.08,,2013-09-21 17:43:00,
2013-09-21 13:52:00,66.0,63.0,-100.00,SSE,168,11.0,14.0,92,0.01,,,0.08,,2013-09-21 17:52:00,
2013-09-21 14:02:00,66.0,63.0,-100.00,SSE,168,11.0,14.0,92,0.01,,,0.08,,2013-09-21 18:02:00,
2013-09-21 14:22:00,65.0,64.0,-100.00,South,179,11.0,15.0,93,0.00,,,0.09,,2013-09-21 18:22:00,
2013-09-21 14:42:00,66.0,64.0,-100.00,South,185,9.0,12.0,94,0.03,,,0.09,,2013-09-21 18:42:00,
2013-09-21 14:52:00,66.0,64.0,-100.00,South,175,7.0,10.0,93,0.03,,,0.07,,2013-09-21 18:52:00,
2013-09-21 15:02:00,66.0,64.0,-100.00,South,175,7.0,10.0,93,0.03,,,0.07,,2013-09-21 19:02:00,
2013-09-21 15:22:00,66.0,64.0,-100.00,South,172,9.0,12.0,93,0.04,,,0.08,,2013-09-21 19:22:00,
2013-09-21 15:42:00,67.0,65.0,-100.00,South,181,13.0,16.0,93,0.09,,,0.10,,2013-09-21 19:42:00,
2013-09-21 15:52:00,67.0,65.0,-100.00,South,181,9.0,13.0,95,0.21,,,0.18,,2013-09-21 19:52:00,
2013-09-21 16:02:00,67.0,65.0,-100.00,South,181,9.0,13.0,95,0.21,,,0.18,,2013-09-21 20:02:00,
2013-09-21 16:22:00,67.0,65.0,-100.00,South,172,9.0,13.0,94,0.21,,,0.22,,2013-09-21 20:22:00,
2013-09-21 16:42:00,67.0,65.0,-100.00,South,181,9.0,12.0,94,0.14,,,0.28,,2013-09-21 20:42:00,
2013-09-21 16:52:00,66.0,65.0,-100.00,SSW,192,10.0,13.0,95,0.14,,,0.38,,2013-09-21 20:52:00,
2013-09-21 17:12:00,66.0,65.0,-100.00,NW,315,4.0,7.0,96,0.48,,,0.46,,2013-09-21 21:12:00,
2013-09-21 17:22:00,66.0,65.0,-100.00,NW,315,4.0,7.0,96,0.48,,,0.46,,2013-09-21 21:22:00,
2013-09-21 17:45:00,63.0,62.0,-100.00,SSW,198,3.0,5.0,96,0.20,,,0.59,,2013-09-21 21:45:00,
2013-09-21 17:54:00,62.0,61.0,-100.00,NW,312,3.0,5.0,97,0.18,,,0.69,,2013-09-21 21:54:00,
2013-09-21 18:05:00,62.0,61.0,-100.00,NW,312,3.0,5.0,97,0.18,,,0.69,,2013-09-21 22:05:00,
2013-09-21 18:24:00,62.0,61.0,-100.00,North,359,1.0,2.0,97,0.20,,,0.75,,2013-09-21 22:24:00,
2013-09-21 18:43:00,62.0,61.0,-100.00,North,3,2.0,3.0,97,0.21,,,0.83,,2013-09-21 22:43:00,
2013-09-21 18:53:00,62.0,61.0,-100.00,NNE,17,2.0,3.0,97,0.30,,,0.91,,2013-09-21 22:53:00,
2013-09-21 19:03:00,62.0,61.0,-100.00,NNE,17,2.0,3.0,97,0.30,,,0.91,,2013-09-21 23:03:00,
2013-09-21 19:23:00,61.0,60.0,-100.00,ESE,104,3.0,4.0,97,0.06,,,0.95,,2013-09-21 23:23:00,
2013-09-21 19:42:00,61.0,60.0,-100.00,ESE,110,1.0,2.0,97,0.00,,,0.96,,2013-09-21 23:42:00,
2013-09-21 19:52:00,61.0,60.0,-100.00,SW,224,1.0,2.0,97,0.00,,,0.96,,2013-09-21 23:52:00,
2013-09-21 20:12:00,61.0,60.0,-100.00,South,191,2.0,4.0,97,0.00,,,0.96,,2013-09-22 00:12:00,
2013-09-21 20:23:00,61.0,60.0,-100.00,South,191,2.0,4.0,97,0.00,,,0.96,,2013-09-22 00:23:00,
2013-09-21 20:43:00,61.0,60.0,-100.00,SSE,167,1.0,2.0,97,0.00,,,0.96,,2013-09-22 00:43:00,
2013-09-21 20:52:00,61.0,60.0,-100.00,South,174,0.0,1.0,97,0.00,,,0.96,,2013-09-22 00:52:00,
2013-09-21 21:02:00,61.0,60.0,-100.00,South,174,0.0,1.0,97,0.00,,,0.96,,2013-09-22 01:02:00,
2013-09-21 21:22:00,60.0,60.0,-100.00,SW,222,0.0,0.0,97,0.00,,,0.96,,2013-09-22 01:22:00,
2013-09-21 21:42:00,60.0,59.0,-100.00,SSW,208,0.0,0.0,97,0.00,,,0.96,,2013-09-22 01:42:00,
2013-09-21 21:52:00,60.0,59.0,-100.00,SSE,151,0.0,0.0,97,0.00,,,0.96,,2013-09-22 01:52:00,
2013-09-21 22:02:00,60.0,59.0,-100.00,SSE,151,0.0,0.0,97,0.00,,,0.96,,2013-09-22 02:02:00,
2013-09-21 22:22:00,60.0,59.0,-100.00,South,189,0.0,0.0,97,0.00,,,0.96,,2013-09-22 02:22:00,
2013-09-21 22:42:00,59.0,58.0,-100.00,North,349,0.0,1.0,97,0.00,,,0.96,,2013-09-22 02:42:00,
2013-09-21 22:52:00,58.0,58.0,-100.00,NNW,332,1.0,2.0,97,0.00,,,0.96,,2013-09-22 02:52:00,
2013-09-21 23:02:00,58.0,58.0,-100.00,NNW,332,1.0,2.0,97,0.00,,,0.96,,2013-09-22 03:02:00,
2013-09-21 23:22:00,58.0,57.0,-100.00,NW,316,2.0,3.0,97,0.00,,,0.96,,2013-09-22 03:22:00,
2013-09-21 23:45:00,58.0,57.0,-100.00,SSW,206,2.0,3.0,97,0.00,,,0.96,,2013-09-22 03:45:00,
2013-09-21 23:54:00,57.0,56.0,-100.00,NNW,342,2.0,3.0,97,0.00,,,0.96,,2013-09-22 03:54:00,